Sankoumaru 31 — JD2200 — position and weather

sailwx.info

Track history (hours):
 
Tides and Currents Weather Stations Pressure Air Temp Water Temp Dewpoint Dewpoint Depression Visibility Wind Speed Wind Dir Waves Ship Positions

Sankoumaru 31

Last reported at 2018-Jan-21 04:39 UTC. Time now 2018-Jan-21 08:46 UTC.
Position N 34°47' E 134°38'.

Length 75 m; draft 5 m.

Type: Cargo ship. MMSI: 431501842.

Date/timePositionNaut miles runAvg speedWind from/ knotsBaromVisibWave heightAir tempDewpointWater temp
2018-Jan-21 04:39N 34°47' E 134°38'1 6.6
2018-Jan-21 04:28N 34°46' E 134°38'1 0.8
2018-Jan-21 03:10N 34°46' E 134°39'0 0.0
2018-Jan-21 02:46N 34°46' E 134°39'0 0.0
2018-Jan-21 00:28N 34°46' E 134°39'0 0.0
2018-Jan-20 23:58N 34°46' E 134°39'0 0.0
2018-Jan-20 23:22N 34°46' E 134°39'0 0.0
2018-Jan-20 22:52N 34°46' E 134°39'0 0.0
2018-Jan-20 22:30N 34°46' E 134°39'0 0.4
2018-Jan-20 22:00N 34°46' E 134°39'1 0.5
2018-Jan-20 20:26N 34°45' E 134°39'0 0.0
2018-Jan-20 14:44N 34°45' E 134°39'0 0.3
2018-Jan-20 14:23N 34°45' E 134°39'1 1.8
2018-Jan-20 13:37N 34°47' E 134°39'0 0.0
2018-Jan-20 13:17N 34°47' E 134°39'1 2.4
2018-Jan-20 13:00N 34°46' E 134°39'1110.6
2018-Jan-20 11:59N 34°35' E 134°39'611.5
2018-Jan-20 11:30N 34°30' E 134°38'611.5
2018-Jan-20 11:00N 34°24' E 134°38'1011.9
2018-Jan-20 10:09N 34°14' E 134°39'211.2
2018-Jan-20 09:58N 34°12' E 134°41'611.7
2018-Jan-20 09:28N 34°08' E 134°45'911.3
2018-Jan-20 08:42N 34°01' E 134°52'311.2
2018-Jan-20 08:24N 33°59' E 134°55'109 8.3
2018-Jan-19 19:13N 34°33' E 137°01'310.3
2018-Jan-19 18:56N 34°35' E 136°58'510.7
2018-Jan-19 18:29N 34°38' E 136°54'511.4
2018-Jan-19 18:00N 34°43' E 136°51'611.5
2018-Jan-19 17:30N 34°48' E 136°48'611.8
2018-Jan-19 17:00N 34°54' E 136°47'611.7
2018-Jan-19 16:30N 34°60' E 136°49'4 8.3
2018-Jan-19 16:00N 35°03' E 136°53'0 0.0
2018-Jan-19 15:28N 35°03' E 136°53'0 0.0
2018-Jan-19 14:58N 35°03' E 136°53'0 0.0
2018-Jan-19 14:28N 35°03' E 136°53'0 0.0
2018-Jan-19 13:58N 35°03' E 136°53'0 0.0
2018-Jan-19 13:28N 35°03' E 136°53'0 0.0
2018-Jan-19 12:58N 35°03' E 136°53'0 0.0
2018-Jan-19 12:28N 35°03' E 136°53'0 0.0
2018-Jan-19 11:58N 35°03' E 136°53'0 0.0
2018-Jan-19 11:22N 35°03' E 136°53'0 0.0
2018-Jan-19 10:58N 35°03' E 136°53'0 0.0
2018-Jan-19 10:28N 35°03' E 136°53'0 0.0
2018-Jan-19 09:58N 35°03' E 136°53'0 0.0
2018-Jan-19 09:28N 35°03' E 136°53'0 0.0
2018-Jan-19 08:58N 35°03' E 136°53'0 0.2
2018-Jan-19 08:30N 35°03' E 136°53'2 3.8
2018-Jan-19 08:00N 35°04' E 136°52'0 0.0
2018-Jan-19 07:26N 35°04' E 136°52'0 0.0
2018-Jan-19 06:59N 35°04' E 136°52'0 0.0
2018-Jan-19 06:29N 35°04' E 136°52'0 0.0
2018-Jan-19 05:59N 35°04' E 136°52'0 0.0
2018-Jan-19 05:29N 35°04' E 136°52'0 0.0
2018-Jan-19 04:59N 35°04' E 136°52'0 0.0
2018-Jan-19 04:29N 35°04' E 136°52'0 0.0
2018-Jan-19 03:59N 35°04' E 136°52'0 0.0
2018-Jan-19 03:26N 35°04' E 136°52'0 0.0
2018-Jan-19 02:59N 35°04' E 136°52'0 0.0
2018-Jan-19 02:29N 35°04' E 136°52'0 0.0
2018-Jan-19 01:59N 35°04' E 136°52'0 0.0
2018-Jan-19 01:29N 35°04' E 136°52'0 0.0
2018-Jan-19 00:59N 35°04' E 136°52'0 0.1
2018-Jan-19 00:29N 35°04' E 136°52'0 0.0
2018-Jan-18 23:59N 35°04' E 136°52'0 0.0
2018-Jan-18 23:29N 35°04' E 136°52'0 0.0
2018-Jan-18 22:59N 35°04' E 136°52'0 0.0
2018-Jan-18 22:23N 35°04' E 136°52'0 0.0
2018-Jan-18 21:59N 35°04' E 136°52'0 0.0
2018-Jan-18 21:26N 35°04' E 136°52'0 0.0
2018-Jan-18 20:59N 35°04' E 136°52'0 0.0
2018-Jan-18 20:29N 35°04' E 136°52'0 0.0
2018-Jan-18 19:59N 35°04' E 136°52'0 0.0
2018-Jan-18 19:26N 35°04' E 136°52'0 0.0
2018-Jan-18 18:59N 35°04' E 136°52'0 0.0
2018-Jan-18 18:29N 35°04' E 136°52'0 0.0
2018-Jan-18 17:59N 35°04' E 136°52'0 0.0
2018-Jan-18 17:29N 35°04' E 136°52'0 0.0
2018-Jan-18 16:59N 35°04' E 136°52'0 0.0
2018-Jan-18 16:29N 35°04' E 136°52'0 0.0
2018-Jan-18 15:56N 35°04' E 136°52'0 0.0
2018-Jan-18 15:29N 35°04' E 136°52'0 0.0
2018-Jan-18 14:59N 35°04' E 136°52'0 0.0
2018-Jan-18 14:29N 35°04' E 136°52'0 0.0
2018-Jan-18 13:59N 35°04' E 136°52'0 0.0
2018-Jan-18 13:29N 35°04' E 136°52'0 0.0
2018-Jan-18 12:59N 35°04' E 136°52'0 0.0
2018-Jan-18 12:29N 35°04' E 136°52'0 0.0
2018-Jan-18 11:59N 35°04' E 136°52'0 0.0
2018-Jan-18 11:26N 35°04' E 136°52'0 0.0
2018-Jan-18 10:59N 35°04' E 136°52'0 0.0
2018-Jan-18 10:29N 35°04' E 136°52'0 0.0
2018-Jan-18 09:59N 35°04' E 136°52'0 0.0
2018-Jan-18 09:29N 35°04' E 136°52'0 0.0
2018-Jan-18 08:59N 35°04' E 136°52'0 0.0
2018-Jan-18 08:29N 35°04' E 136°52'0 0.0
2018-Jan-18 07:59N 35°04' E 136°52'0 0.0
2018-Jan-18 07:29N 35°04' E 136°52'0 0.0
2018-Jan-18 06:56N 35°04' E 136°52'0 0.0
2018-Jan-18 06:29N 35°04' E 136°52'0 0.0
2018-Jan-18 05:59N 35°04' E 136°52'0 0.0
2018-Jan-18 05:26N 35°04' E 136°52'0 0.0
2018-Jan-18 04:59N 35°04' E 136°52'0 0.0
2018-Jan-18 04:29N 35°04' E 136°52'0 0.0
2018-Jan-18 03:59N 35°04' E 136°52'0 0.0
2018-Jan-18 03:29N 35°04' E 136°52'0 0.0
2018-Jan-18 02:59N 35°04' E 136°52'0 0.0
2018-Jan-18 02:29N 35°04' E 136°52'0 0.0
2018-Jan-18 01:59N 35°04' E 136°52'0 0.0
2018-Jan-18 01:29N 35°04' E 136°52'0 0.0
2018-Jan-18 00:59N 35°04' E 136°52'0 0.0
2018-Jan-17 23:59N 35°04' E 136°52'0 0.0
2018-Jan-17 23:56N 35°04' E 136°52'  
2018-Jan-12 14:59N 35°21' E 139°54'0 0.0
2018-Jan-12 14:29N 35°21' E 139°54'0 0.0
2018-Jan-12 13:56N 35°21' E 139°54'0 0.0
2018-Jan-12 13:26N 35°21' E 139°54'0 0.0
2018-Jan-12 12:59N 35°21' E 139°54'0 0.0
2018-Jan-12 12:23N 35°21' E 139°54'0 0.0
2018-Jan-12 11:59N 35°21' E 139°54'0 0.0
2018-Jan-12 11:17N 35°21' E 139°54'0 0.0
2018-Jan-12 10:59N 35°21' E 139°54'0 0.0
2018-Jan-12 10:29N 35°21' E 139°54'0 0.0
2018-Jan-12 09:59N 35°21' E 139°54'0 0.0
2018-Jan-12 09:26N 35°21' E 139°54'0 0.0
2018-Jan-12 08:59N 35°21' E 139°54'0 0.0
2018-Jan-12 08:29N 35°21' E 139°54'0 0.0
2018-Jan-12 07:56N 35°21' E 139°54'0 0.0
2018-Jan-12 07:29N 35°21' E 139°54'0 0.0
2018-Jan-12 06:59N 35°21' E 139°54'0 0.0
2018-Jan-12 06:29N 35°21' E 139°54'0 0.0
2018-Jan-12 05:59N 35°21' E 139°54'0 0.0
2018-Jan-12 05:26N 35°21' E 139°54'0 0.0
2018-Jan-12 04:56N 35°21' E 139°54'0 0.0
2018-Jan-12 04:29N 35°21' E 139°54'0 0.0
2018-Jan-12 03:53N 35°21' E 139°54'0 0.0
2018-Jan-12 03:17N 35°21' E 139°54'0 0.0
2018-Jan-12 02:59N 35°21' E 139°54'0 0.0
2018-Jan-12 02:26N 35°21' E 139°54'0 0.0
2018-Jan-12 01:56N 35°21' E 139°54'0 0.0
2018-Jan-12 01:21N 35°21' E 139°54'1 4.0
2018-Jan-12 01:00N 35°22' E 139°52'2 4.1
2018-Jan-12 00:25N 35°24' E 139°50'0 0.0
2018-Jan-11 23:58N 35°24' E 139°50'0 0.0
2018-Jan-11 23:31N 35°24' E 139°50'0 0.0
2018-Jan-11 23:00N 35°24' E 139°50'0 0.0
2018-Jan-11 22:28N 35°24' E 139°50'0 0.0
2018-Jan-11 21:55N 35°24' E 139°50'0 0.0
2018-Jan-11 21:28N 35°24' E 139°50'0 0.1
2018-Jan-11 20:58N 35°24' E 139°50'0 0.0
2018-Jan-11 20:25N 35°24' E 139°50'0 0.0
2018-Jan-11 19:58N 35°24' E 139°50'0 0.1
2018-Jan-11 19:28N 35°24' E 139°50'0 0.0
2018-Jan-11 19:01N 35°24' E 139°50'0 0.0
2018-Jan-11 18:31N 35°24' E 139°50'0 0.0
2018-Jan-11 17:57N 35°24' E 139°50'0 0.0
2018-Jan-11 17:25N 35°24' E 139°50'0 0.0
2018-Jan-11 16:58N 35°24' E 139°50'0 0.0
2018-Jan-11 16:28N 35°24' E 139°50'0 0.0
2018-Jan-11 15:57N 35°24' E 139°50'0 0.0
2018-Jan-11 15:28N 35°24' E 139°50'0 0.0
2018-Jan-11 14:58N 35°24' E 139°50'0 0.0
2018-Jan-11 14:31N 35°24' E 139°50'0 0.0
2018-Jan-11 13:55N 35°24' E 139°50'0 0.0
2018-Jan-11 13:30N 35°24' E 139°50'0 0.0
2018-Jan-11 12:58N 35°24' E 139°50'0 0.0
2018-Jan-11 12:31N 35°24' E 139°50'0 0.0
2018-Jan-11 11:58N 35°24' E 139°50'0 0.0
2018-Jan-11 11:18N 35°24' E 139°50'0 0.0
2018-Jan-11 10:52N 35°24' E 139°50'0 0.0
2018-Jan-11 10:28N 35°24' E 139°50'0 0.0
2018-Jan-11 09:49N 35°24' E 139°50'0 0.1
2018-Jan-11 09:28N 35°24' E 139°50'0 0.0
2018-Jan-11 09:01N 35°24' E 139°50'1 2.5
2018-Jan-11 08:30N 35°25' E 139°50'711.9
2018-Jan-11 07:56N 35°31' E 139°53'512.3
2018-Jan-11 07:30N 35°36' E 139°57'  
Track history (hours):
 
Tides and Currents Weather Stations Pressure Air Temp Water Temp Dewpoint Dewpoint Depression Visibility Wind Speed Wind Dir Waves Ship Positions

Sankoumaru 31

Last reported at 2018-Jan-21 04:39 UTC. Time now 2018-Jan-21 08:46 UTC.
Position N 34°47' E 134°38'.

Length 75 m; draft 5 m.

Type: Cargo ship. MMSI: 431501842.

Date/timePositionNaut miles runAvg speedWind from/ knotsBaromVisibWave heightAir tempDewpointWater temp
2018-Jan-21 04:39N 34°47' E 134°38'1 6.6
2018-Jan-21 04:28N 34°46' E 134°38'1 0.8
2018-Jan-21 03:10N 34°46' E 134°39'0 0.0
2018-Jan-21 02:46N 34°46' E 134°39'0 0.0
2018-Jan-21 00:28N 34°46' E 134°39'0 0.0
2018-Jan-20 23:58N 34°46' E 134°39'0 0.0
2018-Jan-20 23:22N 34°46' E 134°39'0 0.0
2018-Jan-20 22:52N 34°46' E 134°39'0 0.0
2018-Jan-20 22:30N 34°46' E 134°39'0 0.4
2018-Jan-20 22:00N 34°46' E 134°39'1 0.5
2018-Jan-20 20:26N 34°45' E 134°39'0 0.0
2018-Jan-20 14:44N 34°45' E 134°39'0 0.3
2018-Jan-20 14:23N 34°45' E 134°39'1 1.8
2018-Jan-20 13:37N 34°47' E 134°39'0 0.0
2018-Jan-20 13:17N 34°47' E 134°39'1 2.4
2018-Jan-20 13:00N 34°46' E 134°39'1110.6
2018-Jan-20 11:59N 34°35' E 134°39'611.5
2018-Jan-20 11:30N 34°30' E 134°38'611.5
2018-Jan-20 11:00N 34°24' E 134°38'1011.9
2018-Jan-20 10:09N 34°14' E 134°39'211.2
2018-Jan-20 09:58N 34°12' E 134°41'611.7
2018-Jan-20 09:28N 34°08' E 134°45'911.3
2018-Jan-20 08:42N 34°01' E 134°52'311.2
2018-Jan-20 08:24N 33°59' E 134°55'109 8.3
2018-Jan-19 19:13N 34°33' E 137°01'310.3
2018-Jan-19 18:56N 34°35' E 136°58'510.7
2018-Jan-19 18:29N 34°38' E 136°54'511.4
2018-Jan-19 18:00N 34°43' E 136°51'611.5
2018-Jan-19 17:30N 34°48' E 136°48'611.8
2018-Jan-19 17:00N 34°54' E 136°47'611.7
2018-Jan-19 16:30N 34°60' E 136°49'4 8.3
2018-Jan-19 16:00N 35°03' E 136°53'0 0.0
2018-Jan-19 15:28N 35°03' E 136°53'0 0.0
2018-Jan-19 14:58N 35°03' E 136°53'0 0.0
2018-Jan-19 14:28N 35°03' E 136°53'0 0.0
2018-Jan-19 13:58N 35°03' E 136°53'0 0.0
2018-Jan-19 13:28N 35°03' E 136°53'0 0.0
2018-Jan-19 12:58N 35°03' E 136°53'0 0.0
2018-Jan-19 12:28N 35°03' E 136°53'0 0.0
2018-Jan-19 11:58N 35°03' E 136°53'0 0.0
2018-Jan-19 11:22N 35°03' E 136°53'0 0.0
2018-Jan-19 10:58N 35°03' E 136°53'0 0.0
2018-Jan-19 10:28N 35°03' E 136°53'0 0.0
2018-Jan-19 09:58N 35°03' E 136°53'0 0.0
2018-Jan-19 09:28N 35°03' E 136°53'0 0.0
2018-Jan-19 08:58N 35°03' E 136°53'0 0.2
2018-Jan-19 08:30N 35°03' E 136°53'2 3.8
2018-Jan-19 08:00N 35°04' E 136°52'0 0.0
2018-Jan-19 07:26N 35°04' E 136°52'0 0.0
2018-Jan-19 06:59N 35°04' E 136°52'0 0.0
2018-Jan-19 06:29N 35°04' E 136°52'0 0.0
2018-Jan-19 05:59N 35°04' E 136°52'0 0.0
2018-Jan-19 05:29N 35°04' E 136°52'0 0.0
2018-Jan-19 04:59N 35°04' E 136°52'0 0.0
2018-Jan-19 04:29N 35°04' E 136°52'0 0.0
2018-Jan-19 03:59N 35°04' E 136°52'0 0.0
2018-Jan-19 03:26N 35°04' E 136°52'0 0.0
2018-Jan-19 02:59N 35°04' E 136°52'0 0.0
2018-Jan-19 02:29N 35°04' E 136°52'0 0.0
2018-Jan-19 01:59N 35°04' E 136°52'0 0.0
2018-Jan-19 01:29N 35°04' E 136°52'0 0.0
2018-Jan-19 00:59N 35°04' E 136°52'0 0.1
2018-Jan-19 00:29N 35°04' E 136°52'0 0.0
2018-Jan-18 23:59N 35°04' E 136°52'0 0.0
2018-Jan-18 23:29N 35°04' E 136°52'0 0.0
2018-Jan-18 22:59N 35°04' E 136°52'0 0.0
2018-Jan-18 22:23N 35°04' E 136°52'0 0.0
2018-Jan-18 21:59N 35°04' E 136°52'0 0.0
2018-Jan-18 21:26N 35°04' E 136°52'0 0.0
2018-Jan-18 20:59N 35°04' E 136°52'0 0.0
2018-Jan-18 20:29N 35°04' E 136°52'0 0.0
2018-Jan-18 19:59N 35°04' E 136°52'0 0.0
2018-Jan-18 19:26N 35°04' E 136°52'0 0.0
2018-Jan-18 18:59N 35°04' E 136°52'0 0.0
2018-Jan-18 18:29N 35°04' E 136°52'0 0.0
2018-Jan-18 17:59N 35°04' E 136°52'0 0.0
2018-Jan-18 17:29N 35°04' E 136°52'0 0.0
2018-Jan-18 16:59N 35°04' E 136°52'0 0.0
2018-Jan-18 16:29N 35°04' E 136°52'0 0.0
2018-Jan-18 15:56N 35°04' E 136°52'0 0.0
2018-Jan-18 15:29N 35°04' E 136°52'0 0.0
2018-Jan-18 14:59N 35°04' E 136°52'0 0.0
2018-Jan-18 14:29N 35°04' E 136°52'0 0.0
2018-Jan-18 13:59N 35°04' E 136°52'0 0.0
2018-Jan-18 13:29N 35°04' E 136°52'0 0.0
2018-Jan-18 12:59N 35°04' E 136°52'0 0.0
2018-Jan-18 12:29N 35°04' E 136°52'0 0.0
2018-Jan-18 11:59N 35°04' E 136°52'0 0.0
2018-Jan-18 11:26N 35°04' E 136°52'0 0.0
2018-Jan-18 10:59N 35°04' E 136°52'0 0.0
2018-Jan-18 10:29N 35°04' E 136°52'0 0.0
2018-Jan-18 09:59N 35°04' E 136°52'0 0.0
2018-Jan-18 09:29N 35°04' E 136°52'0 0.0
2018-Jan-18 08:59N 35°04' E 136°52'0 0.0
2018-Jan-18 08:29N 35°04' E 136°52'0 0.0
2018-Jan-18 07:59N 35°04' E 136°52'0 0.0
2018-Jan-18 07:29N 35°04' E 136°52'0 0.0
2018-Jan-18 06:56N 35°04' E 136°52'0 0.0
2018-Jan-18 06:29N 35°04' E 136°52'0 0.0
2018-Jan-18 05:59N 35°04' E 136°52'0 0.0
2018-Jan-18 05:26N 35°04' E 136°52'0 0.0
2018-Jan-18 04:59N 35°04' E 136°52'0 0.0
2018-Jan-18 04:29N 35°04' E 136°52'0 0.0
2018-Jan-18 03:59N 35°04' E 136°52'0 0.0
2018-Jan-18 03:29N 35°04' E 136°52'0 0.0
2018-Jan-18 02:59N 35°04' E 136°52'0 0.0
2018-Jan-18 02:29N 35°04' E 136°52'0 0.0
2018-Jan-18 01:59N 35°04' E 136°52'0 0.0
2018-Jan-18 01:29N 35°04' E 136°52'0 0.0
2018-Jan-18 00:59N 35°04' E 136°52'0 0.0
2018-Jan-17 23:59N 35°04' E 136°52'0 0.0
2018-Jan-17 23:56N 35°04' E 136°52'  
2018-Jan-12 14:59N 35°21' E 139°54'0 0.0
2018-Jan-12 14:29N 35°21' E 139°54'0 0.0
2018-Jan-12 13:56N 35°21' E 139°54'0 0.0
2018-Jan-12 13:26N 35°21' E 139°54'0 0.0
2018-Jan-12 12:59N 35°21' E 139°54'0 0.0
2018-Jan-12 12:23N 35°21' E 139°54'0 0.0
2018-Jan-12 11:59N 35°21' E 139°54'0 0.0
2018-Jan-12 11:17N 35°21' E 139°54'0 0.0
2018-Jan-12 10:59N 35°21' E 139°54'0 0.0
2018-Jan-12 10:29N 35°21' E 139°54'0 0.0
2018-Jan-12 09:59N 35°21' E 139°54'0 0.0
2018-Jan-12 09:26N 35°21' E 139°54'0 0.0
2018-Jan-12 08:59N 35°21' E 139°54'0 0.0
2018-Jan-12 08:29N 35°21' E 139°54'0 0.0
2018-Jan-12 07:56N 35°21' E 139°54'0 0.0
2018-Jan-12 07:29N 35°21' E 139°54'0 0.0
2018-Jan-12 06:59N 35°21' E 139°54'0 0.0
2018-Jan-12 06:29N 35°21' E 139°54'0 0.0
2018-Jan-12 05:59N 35°21' E 139°54'0 0.0
2018-Jan-12 05:26N 35°21' E 139°54'0 0.0
2018-Jan-12 04:56N 35°21' E 139°54'0 0.0
2018-Jan-12 04:29N 35°21' E 139°54'0 0.0
2018-Jan-12 03:53N 35°21' E 139°54'0 0.0
2018-Jan-12 03:17N 35°21' E 139°54'0 0.0
2018-Jan-12 02:59N 35°21' E 139°54'0 0.0
2018-Jan-12 02:26N 35°21' E 139°54'0 0.0
2018-Jan-12 01:56N 35°21' E 139°54'0 0.0
2018-Jan-12 01:21N 35°21' E 139°54'1 4.0
2018-Jan-12 01:00N 35°22' E 139°52'2 4.1
2018-Jan-12 00:25N 35°24' E 139°50'0 0.0
2018-Jan-11 23:58N 35°24' E 139°50'0 0.0
2018-Jan-11 23:31N 35°24' E 139°50'0 0.0
2018-Jan-11 23:00N 35°24' E 139°50'0 0.0
2018-Jan-11 22:28N 35°24' E 139°50'0 0.0
2018-Jan-11 21:55N 35°24' E 139°50'0 0.0
2018-Jan-11 21:28N 35°24' E 139°50'0 0.1
2018-Jan-11 20:58N 35°24' E 139°50'0 0.0
2018-Jan-11 20:25N 35°24' E 139°50'0 0.0
2018-Jan-11 19:58N 35°24' E 139°50'0 0.1
2018-Jan-11 19:28N 35°24' E 139°50'0 0.0
2018-Jan-11 19:01N 35°24' E 139°50'0 0.0
2018-Jan-11 18:31N 35°24' E 139°50'0 0.0
2018-Jan-11 17:57N 35°24' E 139°50'0 0.0
2018-Jan-11 17:25N 35°24' E 139°50'0 0.0
2018-Jan-11 16:58N 35°24' E 139°50'0 0.0
2018-Jan-11 16:28N 35°24' E 139°50'0 0.0
2018-Jan-11 15:57N 35°24' E 139°50'0 0.0
2018-Jan-11 15:28N 35°24' E 139°50'0 0.0
2018-Jan-11 14:58N 35°24' E 139°50'0 0.0
2018-Jan-11 14:31N 35°24' E 139°50'0 0.0
2018-Jan-11 13:55N 35°24' E 139°50'0 0.0
2018-Jan-11 13:30N 35°24' E 139°50'0 0.0
2018-Jan-11 12:58N 35°24' E 139°50'0 0.0
2018-Jan-11 12:31N 35°24' E 139°50'0 0.0
2018-Jan-11 11:58N 35°24' E 139°50'0 0.0
2018-Jan-11 11:18N 35°24' E 139°50'0 0.0
2018-Jan-11 10:52N 35°24' E 139°50'0 0.0
2018-Jan-11 10:28N 35°24' E 139°50'0 0.0
2018-Jan-11 09:49N 35°24' E 139°50'0 0.1
2018-Jan-11 09:28N 35°24' E 139°50'0 0.0
2018-Jan-11 09:01N 35°24' E 139°50'1 2.5
2018-Jan-11 08:30N 35°25' E 139°50'711.9
2018-Jan-11 07:56N 35°31' E 139°53'512.3
2018-Jan-11 07:30N 35°36' E 139°57'  

Dump ship's entire track history